Aérodrome :
LOGIN :

S'inscrire | Disclaimer

   EN    FR    IT 

 










Légende :    VFR   VFR Marginal   IFR   IFR Intensif   IFR Très Intensif
Visi : 
Plafond : 
>= 8 km
>= 3000ft
5 à 8 km
1000 à 3000 ft
1500m à 5 km
500 à 1000 ft
800 à 1500m
200 à 500 ft
< 800m
< 200 ft
Symboles :   Orages  Brouillard  Fortes neiges  Fortes précipitations  Vent > 20 kt
SIGMETs :   Divers  Orages  Givrage  Turbulence  Onde Orograph.  Cendres Volcan.






- Altitude de l'aérodrome : 375 ft
- Code IATA : MST


EHBK - Maastricht Aachen

DERNIER METAR :
  • 171755Z AUTO 23013KT 200V260 9999 NSC 08/04 Q1017 BECMG 25015G25KT

METARs EXPIRÉS :
  • 171725Z AUTO 22012KT 9999 FEW029 08/05 Q1016 NOSIG
  • 171655Z AUTO 22013KT 9999 FEW031 SCT040 08/05 Q1016 NOSIG
  • 171625Z AUTO 22012KT 9999 NSC 08/06 Q1015 NOSIG
  • 171555Z AUTO 23012KT 9999 NSC 09/06 Q1015 NOSIG
  • 171525Z AUTO 22011KT 9999 FEW020 09/07 Q1015 NOSIG

TAF TAF EHBK
Valide du 17 à 18h jusqu'au 19 à 00h UTC


171717Z 1718/1824 24014KT 9999 BKN020
TEMPO 1718/1720 25015G25KT
PROB30
TEMPO 1804/1812 5000 -RA -SHRA BKN008 FEW015CB
BECMG 1811/1814 28010KT



MET'MAP, la Météo Aéronautique d'un coup d'oeil ! - Copyright ORBIFLY Décembre 2007 - Disclaimer

ORBIFLY MET'MAP TEAM :

Programmation & Développement : Alexandra Zaïnal
Sur une idée originale de : Baudouin d'Aumeries
Assistance à la programmation : Marc-Olivier Méhu
Soutien technique & logistique : Manuel Goepfert

Contact : metmap@orbifly.com




SOURCES & CREDITS :

   NOAA